createdAt,value
2019-05-23T00:00:07.049Z,10.36
2019-05-23T00:02:56.573Z,10.30
2019-05-23T00:05:46.769Z,10.23
2019-05-23T00:08:33.742Z,10.15
2019-05-23T00:11:35.901Z,10.09
2019-05-23T00:14:36.916Z,10.12
2019-05-23T00:17:23.717Z,10.00
2019-05-23T00:20:11.524Z,9.96
2019-05-23T00:22:59.092Z,10.03
2019-05-23T00:25:46.571Z,9.92
2019-05-23T00:28:34.777Z,9.84
2019-05-23T00:31:25.822Z,9.79
2019-05-23T00:34:13.083Z,9.76
2019-05-23T00:36:59.596Z,9.74
2019-05-23T00:39:46.519Z,9.68
2019-05-23T00:42:32.658Z,9.67
2019-05-23T00:45:20.707Z,9.57
2019-05-23T00:48:06.992Z,9.61
2019-05-23T00:50:53.959Z,9.53
2019-05-23T00:53:41.666Z,9.46
2019-05-23T00:56:27.812Z,9.44
2019-05-23T00:59:26.755Z,9.47
2019-05-23T01:02:02.592Z,9.50
2019-05-23T01:04:50.247Z,9.38
2019-05-23T01:07:36.517Z,9.40
2019-05-23T01:10:22.601Z,9.26
2019-05-23T01:13:09.984Z,9.28
2019-05-23T01:15:56.879Z,9.26
2019-05-23T01:18:43.467Z,9.24
2019-05-23T01:21:47.159Z,9.25
2019-05-23T01:24:42.717Z,9.20
2019-05-23T01:27:29.929Z,9.18
2019-05-23T01:30:20.578Z,9.09
2019-05-23T01:33:06.968Z,9.07
2019-05-23T01:35:53.646Z,9.07
2019-05-23T01:38:40.817Z,8.96
2019-05-23T01:41:27.193Z,8.98
2019-05-23T01:44:13.553Z,8.99
2019-05-23T01:46:59.686Z,8.93
2019-05-23T01:49:46.452Z,8.94
2019-05-23T01:52:32.826Z,8.95
2019-05-23T01:55:19.452Z,8.88
2019-05-23T01:58:05.642Z,8.90
2019-05-23T02:00:53.062Z,8.91
2019-05-23T02:03:39.311Z,8.89
2019-05-23T02:06:25.924Z,8.79
2019-05-23T02:09:13.242Z,8.73
2019-05-23T02:11:59.752Z,8.69
2019-05-23T02:14:46.012Z,8.63
2019-05-23T02:17:33.257Z,8.57
2019-05-23T02:20:22.032Z,8.61
2019-05-23T02:23:09.168Z,8.60
2019-05-23T02:25:55.435Z,8.55
2019-05-23T02:28:41.267Z,8.57
2019-05-23T02:31:27.709Z,8.50
2019-05-23T02:34:15.183Z,8.44
2019-05-23T02:37:03.751Z,8.41
2019-05-23T02:39:56.560Z,8.34
2019-05-23T02:42:47.639Z,8.31
2019-05-23T02:45:38.854Z,8.28
2019-05-23T02:48:30.545Z,8.26
2019-05-23T02:51:23.125Z,8.28
2019-05-23T02:54:13.429Z,8.23
2019-05-23T02:57:02.657Z,8.13
2019-05-23T02:59:52.518Z,8.03
2019-05-23T03:02:50.982Z,7.96
2019-05-23T03:05:38.306Z,8.05
2019-05-23T03:08:24.596Z,8.14
2019-05-23T03:11:18.603Z,8.09
2019-05-23T03:14:05.511Z,8.03
2019-05-23T03:16:53.888Z,8.06
2019-05-23T03:19:51.208Z,7.99
2019-05-23T03:22:47.899Z,8.07
2019-05-23T03:26:18.903Z,8.11
2019-05-23T03:29:05.743Z,8.22
2019-05-23T03:32:03.621Z,8.05
2019-05-23T03:34:54.769Z,8.06
2019-05-23T03:37:41.708Z,8.13
2019-05-23T03:40:27.617Z,8.05
2019-05-23T03:43:14.170Z,8.19
2019-05-23T03:46:04.468Z,8.17
2019-05-23T03:48:52.693Z,8.21
2019-05-23T03:51:40.766Z,8.37
2019-05-23T03:54:29.094Z,8.53
2019-05-23T03:57:15.361Z,8.61
2019-05-23T04:00:02.559Z,8.99
2019-05-23T04:02:50.182Z,9.36
2019-05-23T04:05:36.959Z,9.79
2019-05-23T04:08:24.168Z,10.04
2019-05-23T04:11:11.137Z,10.08
2019-05-23T04:13:57.577Z,10.20
2019-05-23T04:16:43.629Z,10.96
2019-05-23T04:19:29.953Z,11.81
2019-05-23T04:22:16.985Z,12.17
2019-05-23T04:25:03.355Z,12.55
2019-05-23T04:27:49.738Z,12.86
2019-05-23T04:30:36.287Z,13.02
2019-05-23T04:33:22.314Z,13.20
2019-05-23T04:36:08.426Z,13.07
2019-05-23T04:38:54.784Z,12.72
2019-05-23T04:41:40.873Z,13.06
2019-05-23T04:44:27.634Z,13.86
2019-05-23T04:47:14.084Z,14.67
2019-05-23T04:50:00.623Z,15.16
2019-05-23T04:52:47.185Z,14.78
2019-05-23T04:55:33.438Z,14.28
2019-05-23T04:58:20.269Z,14.31
2019-05-23T05:01:06.787Z,14.62
2019-05-23T05:03:53.656Z,14.75
2019-05-23T05:06:39.945Z,14.88
2019-05-23T05:09:29.001Z,14.94
2019-05-23T05:12:15.362Z,16.01
2019-05-23T05:15:01.675Z,16.70
2019-05-23T05:17:47.897Z,16.50
2019-05-23T05:20:33.936Z,17.10
2019-05-23T05:23:20.559Z,17.67
2019-05-23T05:26:12.012Z,17.36
2019-05-23T05:28:58.153Z,17.28
2019-05-23T05:31:44.374Z,16.96
2019-05-23T05:34:30.698Z,16.47
2019-05-23T05:37:16.918Z,16.84
2019-05-23T05:40:05.466Z,15.89
2019-05-23T05:42:52.368Z,15.28
2019-05-23T05:45:38.564Z,15.54
2019-05-23T05:48:24.902Z,16.29
2019-05-23T05:51:11.165Z,15.98
2019-05-23T05:53:57.718Z,14.67
2019-05-23T05:56:43.490Z,16.44
2019-05-23T05:59:29.892Z,16.94
2019-05-23T06:02:17.191Z,15.24
2019-05-23T06:05:03.283Z,16.32
2019-05-23T06:07:49.918Z,15.25
2019-05-23T06:10:36.700Z,15.41
2019-05-23T06:13:22.983Z,16.59
2019-05-23T06:16:09.533Z,15.89
2019-05-23T06:18:55.678Z,16.41
2019-05-23T06:21:42.262Z,16.70
2019-05-23T06:24:43.890Z,17.57
2019-05-23T06:27:19.311Z,18.06
2019-05-23T06:30:07.902Z,18.02
2019-05-23T06:32:54.422Z,18.66
2019-05-23T06:35:40.932Z,19.80
2019-05-23T06:38:27.943Z,18.67
2019-05-23T06:41:14.402Z,19.41
2019-05-23T06:44:01.338Z,19.54
2019-05-23T06:46:47.988Z,20.54
2019-05-23T06:49:34.272Z,20.87
2019-05-23T06:52:20.502Z,20.96
2019-05-23T06:55:07.193Z,20.96
2019-05-23T06:57:53.710Z,20.61
2019-05-23T07:00:40.576Z,19.86
2019-05-23T07:03:41.693Z,19.99
2019-05-23T07:06:19.357Z,20.27
2019-05-23T07:09:11.408Z,19.51
2019-05-23T07:11:58.908Z,19.96
2019-05-23T07:14:45.057Z,20.94
2019-05-23T07:17:32.612Z,21.25
2019-05-23T07:20:19.043Z,21.47
2019-05-23T07:23:07.229Z,21.65
2019-05-23T07:25:53.351Z,21.88
2019-05-23T07:28:39.727Z,20.80
2019-05-23T07:31:25.720Z,22.15
2019-05-23T07:34:12.431Z,22.66
2019-05-23T07:36:58.671Z,23.28
2019-05-23T07:39:44.789Z,21.22
2019-05-23T07:42:31.357Z,20.13
2019-05-23T07:45:22.292Z,20.90
2019-05-23T07:48:08.849Z,22.46
2019-05-23T07:50:55.668Z,23.58
2019-05-23T07:54:11.607Z,22.76
2019-05-23T07:56:58.627Z,22.74
2019-05-23T07:59:45.108Z,23.21
2019-05-23T08:02:34.487Z,23.36
2019-05-23T08:05:21.749Z,24.14
2019-05-23T08:08:08.807Z,23.62
2019-05-23T08:10:55.447Z,23.90
2019-05-23T08:13:41.448Z,24.58
2019-05-23T08:16:28.187Z,25.35
2019-05-23T08:19:19.188Z,25.08
2019-05-23T08:22:02.688Z,23.31
2019-05-23T08:24:51.302Z,23.92
2019-05-23T08:27:37.468Z,23.78
2019-05-23T08:30:24.388Z,24.36
2019-05-23T08:33:12.057Z,25.57
2019-05-23T08:35:58.510Z,26.26
2019-05-23T08:38:45.268Z,26.87
2019-05-23T08:41:32.328Z,26.25
2019-05-23T08:44:19.939Z,25.73
2019-05-23T08:47:07.916Z,25.07
2019-05-23T08:49:54.098Z,25.02
2019-05-23T08:52:40.407Z,26.13
2019-05-23T08:55:28.147Z,26.87
2019-05-23T08:58:14.708Z,27.24
2019-05-23T09:01:02.080Z,27.29
2019-05-23T09:03:48.699Z,26.52
2019-05-23T09:06:35.273Z,25.75
2019-05-23T09:09:29.559Z,26.32
2019-05-23T09:12:09.550Z,25.76
2019-05-23T09:14:56.152Z,25.82
2019-05-23T09:17:52.759Z,26.32
2019-05-23T09:20:31.588Z,27.27
2019-05-23T09:23:18.317Z,26.11
2019-05-23T09:26:05.036Z,25.05
2019-05-23T09:28:51.133Z,25.61
2019-05-23T09:31:37.928Z,25.64
2019-05-23T09:34:24.189Z,26.46
2019-05-23T09:37:11.689Z,26.06
2019-05-23T09:39:58.249Z,26.70
2019-05-23T09:42:46.249Z,26.15
2019-05-23T09:45:32.548Z,26.88
2019-05-23T09:48:19.080Z,26.31
2019-05-23T09:51:05.199Z,24.68
2019-05-23T09:53:51.390Z,24.24
2019-05-23T09:56:38.253Z,24.94
2019-05-23T09:59:24.549Z,24.68
2019-05-23T10:02:11.414Z,25.47
2019-05-23T10:04:58.521Z,25.49
2019-05-23T10:07:44.848Z,24.05
2019-05-23T10:10:31.791Z,24.27
2019-05-23T10:13:18.415Z,23.90
2019-05-23T10:16:07.509Z,23.78
2019-05-23T10:18:54.364Z,23.85
2019-05-23T10:21:40.879Z,24.27
2019-05-23T10:24:27.429Z,23.91
2019-05-23T10:27:13.650Z,24.13
2019-05-23T10:29:59.728Z,24.26
2019-05-23T10:32:45.629Z,23.29
2019-05-23T10:35:32.455Z,23.49
2019-05-23T10:38:19.610Z,23.78
2019-05-23T10:41:05.929Z,23.08
2019-05-23T10:43:53.272Z,23.41
2019-05-23T10:46:40.289Z,23.35
2019-05-23T10:49:26.909Z,24.55
2019-05-23T10:52:13.067Z,24.48
2019-05-23T10:54:59.209Z,24.28
2019-05-23T10:57:45.708Z,24.56
2019-05-23T11:00:32.212Z,25.18
2019-05-23T11:03:18.689Z,25.27
2019-05-23T11:06:15.461Z,25.23
2019-05-23T11:08:56.106Z,25.11
2019-05-23T11:11:42.600Z,25.45
2019-05-23T11:14:29.118Z,24.83
2019-05-23T11:17:15.236Z,23.83
2019-05-23T11:20:01.502Z,23.86
2019-05-23T11:22:48.208Z,23.22
2019-05-23T11:25:35.946Z,23.20
2019-05-23T11:28:23.536Z,24.25
2019-05-23T11:31:11.648Z,24.73
2019-05-23T11:33:57.728Z,24.55
2019-05-23T11:36:43.853Z,23.22
2019-05-23T11:39:31.031Z,23.37
2019-05-23T11:42:18.108Z,23.58
2019-05-23T11:45:05.106Z,23.20
2019-05-23T11:47:51.429Z,23.44
2019-05-23T11:50:37.849Z,23.11
2019-05-23T11:53:24.332Z,22.97
2019-05-23T11:56:10.814Z,23.34
2019-05-23T11:59:01.164Z,22.98
2019-05-23T12:01:51.048Z,22.70
2019-05-23T12:04:39.588Z,22.79
2019-05-23T12:07:29.709Z,22.70
2019-05-23T12:10:16.128Z,22.98
2019-05-23T12:13:02.390Z,23.59
2019-05-23T12:15:49.268Z,23.10
2019-05-23T12:18:36.198Z,23.39
2019-05-23T12:21:23.311Z,23.63
2019-05-23T12:24:09.671Z,23.60
2019-05-23T12:26:56.050Z,22.42
2019-05-23T12:29:42.524Z,22.27
2019-05-23T12:32:28.630Z,22.71
2019-05-23T12:35:14.768Z,23.06
2019-05-23T12:38:02.655Z,23.24
2019-05-23T12:40:48.887Z,23.37
2019-05-23T12:43:35.294Z,23.23
2019-05-23T12:46:21.998Z,23.19
2019-05-23T12:49:45.868Z,23.32
2019-05-23T12:52:33.209Z,23.18
2019-05-23T12:55:19.961Z,23.15
2019-05-23T12:58:07.510Z,23.59
2019-05-23T13:00:55.870Z,22.96
2019-05-23T13:03:42.650Z,23.29
2019-05-23T13:06:28.948Z,23.46
2019-05-23T13:09:15.173Z,23.08
2019-05-23T13:12:01.334Z,22.96
2019-05-23T13:14:47.640Z,23.19
2019-05-23T13:17:34.067Z,22.94
2019-05-23T13:20:20.807Z,22.48
2019-05-23T13:23:08.239Z,22.88
2019-05-23T13:25:55.207Z,23.30
2019-05-23T13:28:41.371Z,23.46
2019-05-23T13:31:28.348Z,23.46
2019-05-23T13:34:14.828Z,23.45
2019-05-23T13:37:01.798Z,23.39
2019-05-23T13:39:48.768Z,23.40
2019-05-23T13:42:34.877Z,23.33
2019-05-23T13:45:21.388Z,23.22
2019-05-23T13:48:08.191Z,23.08
2019-05-23T13:50:54.330Z,23.27
2019-05-23T13:53:40.571Z,23.26
2019-05-23T13:56:27.531Z,23.49
2019-05-23T13:59:14.129Z,23.32
2019-05-23T14:02:00.563Z,23.32
2019-05-23T14:04:47.150Z,22.89
2019-05-23T14:07:34.229Z,22.87
2019-05-23T14:10:20.973Z,23.23
2019-05-23T14:13:07.408Z,23.34
2019-05-23T14:15:53.911Z,23.18
2019-05-23T14:18:40.248Z,23.19
2019-05-23T14:21:30.748Z,23.13
2019-05-23T14:24:17.468Z,22.98
2019-05-23T14:27:21.515Z,23.29
2019-05-23T14:30:15.018Z,23.01
2019-05-23T14:33:03.648Z,22.99
2019-05-23T14:35:50.768Z,22.72
2019-05-23T14:38:37.308Z,22.87
2019-05-23T14:41:23.628Z,22.88
2019-05-23T14:44:10.048Z,22.94
2019-05-23T14:47:22.888Z,22.89
2019-05-23T14:50:28.067Z,22.60
2019-05-23T14:53:17.988Z,22.76
2019-05-23T14:56:04.699Z,22.77
2019-05-23T14:58:51.469Z,22.90
2019-05-23T15:01:38.191Z,23.15
2019-05-23T15:04:24.487Z,23.21
2019-05-23T15:07:10.435Z,23.11
2019-05-23T15:09:56.674Z,23.10
2019-05-23T15:12:43.368Z,23.01
2019-05-23T15:15:29.951Z,22.81
2019-05-23T15:18:16.339Z,22.89
2019-05-23T15:21:02.936Z,23.09
2019-05-23T15:23:49.047Z,23.03
2019-05-23T15:26:35.528Z,23.19
2019-05-23T15:29:22.307Z,23.20
2019-05-23T15:32:08.767Z,23.14
2019-05-23T15:34:54.948Z,22.90
2019-05-23T15:37:41.417Z,22.66
2019-05-23T15:40:29.263Z,22.88
2019-05-23T15:43:15.248Z,22.90
2019-05-23T15:46:01.589Z,22.99
2019-05-23T15:48:47.767Z,23.01
2019-05-23T15:51:46.008Z,22.50
2019-05-23T15:54:51.607Z,22.47
2019-05-23T15:57:54.487Z,22.66
2019-05-23T16:01:00.208Z,22.88
2019-05-23T16:03:51.068Z,22.95
2019-05-23T16:06:38.430Z,22.87
2019-05-23T16:09:30.261Z,22.92
2019-05-23T16:12:14.668Z,22.96
2019-05-23T16:15:00.971Z,22.65
2019-05-23T16:17:47.015Z,22.72
2019-05-23T16:20:33.587Z,22.56
2019-05-23T16:23:19.848Z,22.67
2019-05-23T16:26:06.058Z,22.70
2019-05-23T16:28:52.468Z,22.59
2019-05-23T16:31:38.867Z,22.71
2019-05-23T16:34:26.191Z,22.70
2019-05-23T16:37:12.667Z,22.43
2019-05-23T16:39:58.948Z,22.51
2019-05-23T16:42:45.010Z,22.60
2019-05-23T16:45:31.156Z,22.23
2019-05-23T16:48:17.662Z,22.30
2019-05-23T16:51:03.869Z,22.48
2019-05-23T16:53:51.050Z,22.43
2019-05-23T16:56:47.267Z,22.21
2019-05-23T16:59:41.046Z,22.13
2019-05-23T17:02:45.838Z,22.09
2019-05-23T17:05:55.848Z,21.97
2019-05-23T17:08:56.349Z,21.92
2019-05-23T17:11:51.849Z,22.09
2019-05-23T17:14:51.904Z,22.11
2019-05-23T17:18:02.810Z,21.85
2019-05-23T17:21:06.990Z,21.95
2019-05-23T17:24:08.628Z,21.82
2019-05-23T17:27:17.248Z,21.92
2019-05-23T17:30:18.088Z,21.87
2019-05-23T17:33:06.689Z,21.74
2019-05-23T17:35:53.090Z,21.59
2019-05-23T17:38:39.748Z,21.54
2019-05-23T17:41:26.510Z,21.33
2019-05-23T17:44:12.929Z,21.37
2019-05-23T17:46:59.269Z,21.43
2019-05-23T17:49:45.792Z,21.40
2019-05-23T17:52:32.028Z,21.38
2019-05-23T17:55:18.608Z,21.28
2019-05-23T17:58:05.389Z,21.24
2019-05-23T18:00:51.279Z,21.06
2019-05-23T18:03:37.422Z,21.09
2019-05-23T18:06:24.173Z,20.95
2019-05-23T18:09:11.087Z,20.93
2019-05-23T18:11:58.327Z,20.87
2019-05-23T18:14:44.522Z,20.89
2019-05-23T18:17:31.631Z,20.88
2019-05-23T18:20:17.968Z,20.84
2019-05-23T18:23:05.442Z,20.79
2019-05-23T18:25:51.452Z,20.77
2019-05-23T18:28:37.732Z,20.62
2019-05-23T18:31:27.146Z,20.61
2019-05-23T18:34:13.382Z,20.53
2019-05-23T18:36:59.691Z,20.44
2019-05-23T18:39:45.787Z,20.43
2019-05-23T18:42:31.996Z,20.32
2019-05-23T18:45:19.437Z,20.33
2019-05-23T18:48:06.011Z,20.31
2019-05-23T18:50:52.042Z,20.22
2019-05-23T18:53:38.761Z,20.21
2019-05-23T18:56:25.106Z,20.15
2019-05-23T18:59:11.748Z,20.04
2019-05-23T19:01:57.666Z,19.89
2019-05-23T19:04:44.099Z,19.72
2019-05-23T19:07:30.855Z,19.65
2019-05-23T19:10:17.557Z,19.61
2019-05-23T19:13:04.107Z,19.57
2019-05-23T19:15:50.461Z,19.52
2019-05-23T19:18:36.678Z,19.39
2019-05-23T19:21:24.316Z,19.20
2019-05-23T19:24:10.611Z,19.10
2019-05-23T19:26:57.601Z,19.00
2019-05-23T19:29:44.001Z,18.96
2019-05-23T19:32:30.589Z,18.91
2019-05-23T19:35:17.096Z,18.73
2019-05-23T19:38:04.537Z,18.60
2019-05-23T19:40:51.051Z,18.59
2019-05-23T19:43:37.939Z,18.49
2019-05-23T19:46:24.341Z,18.39
2019-05-23T19:49:11.185Z,18.26
2019-05-23T19:51:57.249Z,18.19
2019-05-23T19:54:44.276Z,18.10
2019-05-23T19:57:31.647Z,18.13
2019-05-23T20:00:20.247Z,18.07
2019-05-23T20:03:06.325Z,18.01
2019-05-23T20:05:53.415Z,17.97
2019-05-23T20:08:39.875Z,17.90
2019-05-23T20:11:26.728Z,17.92
2019-05-23T20:14:13.047Z,17.85
2019-05-23T20:16:59.201Z,17.82
2019-05-23T20:19:45.372Z,17.77
2019-05-23T20:22:31.476Z,17.73
2019-05-23T20:25:18.136Z,17.71
2019-05-23T20:28:05.061Z,17.68
2019-05-23T20:30:53.473Z,17.65
2019-05-23T20:33:39.575Z,17.59
2019-05-23T20:36:25.761Z,17.63
2019-05-23T20:39:11.822Z,17.61
2019-05-23T20:42:10.842Z,17.59
2019-05-23T20:44:46.196Z,17.56
2019-05-23T20:47:32.950Z,17.55
2019-05-23T20:50:18.851Z,17.46
2019-05-23T20:53:05.358Z,17.48
2019-05-23T20:55:51.347Z,17.44
2019-05-23T20:58:37.587Z,17.47
2019-05-23T21:01:28.793Z,17.48
2019-05-23T21:04:15.297Z,17.49
2019-05-23T21:07:01.756Z,17.49
2019-05-23T21:09:47.861Z,17.51
2019-05-23T21:12:34.136Z,17.49
2019-05-23T21:15:20.258Z,17.47
2019-05-23T21:18:06.489Z,17.45
2019-05-23T21:20:52.464Z,17.45
2019-05-23T21:23:38.599Z,17.44
2019-05-23T21:26:24.774Z,17.42
2019-05-23T21:29:10.803Z,17.38
2019-05-23T21:31:57.079Z,17.35
2019-05-23T21:34:43.257Z,17.31
2019-05-23T21:37:29.244Z,17.29
2019-05-23T21:40:21.960Z,17.27
2019-05-23T21:43:08.442Z,17.21
2019-05-23T21:45:54.970Z,17.18
2019-05-23T21:48:40.779Z,17.14
2019-05-23T21:51:27.023Z,17.12
2019-05-23T21:54:13.372Z,17.08
2019-05-23T21:56:59.374Z,17.04
2019-05-23T21:59:45.630Z,17.00
2019-05-23T22:02:33.234Z,16.94
2019-05-23T22:05:19.714Z,16.92
2019-05-23T22:08:05.934Z,16.90
2019-05-23T22:10:51.954Z,16.87
2019-05-23T22:13:38.089Z,16.88
2019-05-23T22:16:24.850Z,16.80
2019-05-23T22:19:13.824Z,16.75
2019-05-23T22:22:00.123Z,16.72
2019-05-23T22:24:46.140Z,16.69
2019-05-23T22:27:32.628Z,16.58
2019-05-23T22:30:18.854Z,16.56
2019-05-23T22:33:05.266Z,16.49
2019-05-23T22:35:51.265Z,16.48
2019-05-23T22:38:37.165Z,16.37
2019-05-23T22:41:23.550Z,16.40
2019-05-23T22:44:09.763Z,16.35
2019-05-23T22:46:56.293Z,16.18
2019-05-23T22:49:42.498Z,16.20
2019-05-23T22:52:28.580Z,16.16
2019-05-23T22:55:14.818Z,16.03
2019-05-23T22:58:00.748Z,15.95
2019-05-23T23:00:48.887Z,15.86
2019-05-23T23:03:35.119Z,15.83
2019-05-23T23:06:21.353Z,15.69
2019-05-23T23:09:07.640Z,15.56
2019-05-23T23:11:53.493Z,15.45
2019-05-23T23:14:39.549Z,15.40
2019-05-23T23:17:25.723Z,15.16
2019-05-23T23:20:12.064Z,14.92
2019-05-23T23:22:58.168Z,14.78
2019-05-23T23:25:44.484Z,14.64
2019-05-23T23:28:30.494Z,14.56
2019-05-23T23:31:16.633Z,14.38
2019-05-23T23:34:02.793Z,14.35
2019-05-23T23:36:48.970Z,14.33
2019-05-23T23:39:35.008Z,14.24
2019-05-23T23:42:21.570Z,14.14
2019-05-23T23:45:26.179Z,13.99
2019-05-23T23:48:30.288Z,13.97
2019-05-23T23:51:35.053Z,13.91
2019-05-23T23:54:38.944Z,13.70
2019-05-23T23:57:43.714Z,13.62
